This is the latest recevied weather packets stored in our database for station/object OH2MUI. If no packets are shown the sender has not sent any weather packets the latest 10 day(s).
| Time | Temp. | Humidity | Pressure | Rain* | Wind** | Luminosity | Snow |
|---|---|---|---|---|---|---|---|
| 1778107136 | 2.78° C | 70% | 1016.3 hPa | 0 mm | - | - | - |
| 1778106129 | 2.78° C | 70% | 1016.3 hPa | 0 mm | - | - | - |
| 1778104944 | 2.78° C | 70% | 1016.3 hPa | 0 mm | - | - | - |
| 1778103942 | 2.78° C | 70% | 1016.3 hPa | 0 mm | - | - | - |
| 1778102813 | 2.78° C | 70% | 1016.3 hPa | 0 mm | - | - | - |
| 1778101779 | 2.78° C | 70% | 1016.3 hPa | 0 mm | - | - | - |
| 1778100780 | 3.33° C | - | - | 0 mm | - | - | - |
| 1778100774 | 3.33° C | 68% | 1016.3 hPa | 0 mm | - | - | - |
| 1778099712 | 3.89° C | 65% | 1016.1 hPa | 0 mm | - | - | - |
| 1778098704 | 3.89° C | 63% | 1016 hPa | 0 mm | - | - | - |
| 1778097524 | 4.44° C | 61% | 1016 hPa | 0 mm | - | - | - |
| 1778096417 | 5.56° C | 58% | 1016 hPa | 0 mm | - | - | - |
| 1778096412 | 5.56° C | 58% | 1016 hPa | 0 mm | - | - | - |
| 1778095404 | 6.11° C | 53% | 1015.8 hPa | 0 mm | - | - | - |
| 1778094279 | 6.67° C | 49% | 1015.7 hPa | 0 mm | - | - | - |
| 1778093134 | 7.78° C | 48% | 1015.5 hPa | 0 mm | - | - | - |
| 1778092149 | 8.33° C | 47% | 1015.5 hPa | 0 mm | - | - | - |
| 1778091099 | 10° C | 44% | 1015.4 hPa | 0 mm | - | - | - |
| 1778089986 | 11.11° C | - | - | 0 mm | - | - | - |
| 1778089979 | 11.11° C | 38% | 1015.2 hPa | 0 mm | - | - | - |
| 1778088869 | 11.11° C | 38% | 1015.1 hPa | 0 mm | - | - | - |
| 1778087834 | 11.11° C | 38% | 1015 hPa | 0 mm | - | - | - |
| 1778086796 | 11.67° C | - | - | 0 mm | - | - | - |
| 1778086789 | 11.67° C | 38% | 1015 hPa | 0 mm | - | - | - |
| 1778085654 | 11.67° C | 38% | 1014.9 hPa | 0 mm | - | - | - |
* Rain latest hour (hover to see other rain measurements)
** Current wind speed in m/s (hover to see current wind gust speed)